sensor_id;sensor_type;location;lat;lon;timestamp;P1;durP1;ratioP1;P2;durP2;ratioP2
7195;SDS011;3639;51.308;5.624;2022-10-22T00:02:03;8.13;;;3.80;;
7195;SDS011;3639;51.308;5.624;2022-10-22T00:04:31;5.77;;;4.57;;
7195;SDS011;3639;51.308;5.624;2022-10-22T00:06:57;5.37;;;3.97;;
7195;SDS011;3639;51.308;5.624;2022-10-22T00:09:22;6.27;;;3.97;;
7195;SDS011;3639;51.308;5.624;2022-10-22T00:11:48;6.23;;;4.40;;
7195;SDS011;3639;51.308;5.624;2022-10-22T00:14:13;4.77;;;3.87;;
7195;SDS011;3639;51.308;5.624;2022-10-22T00:16:40;4.90;;;3.90;;
7195;SDS011;3639;51.308;5.624;2022-10-22T00:19:05;5.43;;;4.07;;
7195;SDS011;3639;51.308;5.624;2022-10-22T00:21:33;6.80;;;4.50;;
7195;SDS011;3639;51.308;5.624;2022-10-22T00:24:01;8.00;;;4.53;;
7195;SDS011;3639;51.308;5.624;2022-10-22T00:26:27;7.83;;;4.40;;
7195;SDS011;3639;51.308;5.624;2022-10-22T00:28:52;8.53;;;4.70;;
7195;SDS011;3639;51.308;5.624;2022-10-22T00:31:18;7.53;;;4.10;;
7195;SDS011;3639;51.308;5.624;2022-10-22T00:33:47;8.63;;;4.23;;
7195;SDS011;3639;51.308;5.624;2022-10-22T00:36:13;9.73;;;4.23;;
7195;SDS011;3639;51.308;5.624;2022-10-22T00:38:40;8.13;;;4.27;;
7195;SDS011;3639;51.308;5.624;2022-10-22T00:41:06;7.80;;;3.60;;
7195;SDS011;3639;51.308;5.624;2022-10-22T00:43:32;7.80;;;4.33;;
7195;SDS011;3639;51.308;5.624;2022-10-22T00:45:58;5.13;;;4.23;;
7195;SDS011;3639;51.308;5.624;2022-10-22T00:48:24;7.03;;;3.83;;
7195;SDS011;3639;51.308;5.624;2022-10-22T00:56:08;6.40;;;5.03;;
7195;SDS011;3639;51.308;5.624;2022-10-22T00:58:35;8.63;;;4.27;;
7195;SDS011;3639;51.308;5.624;2022-10-22T01:01:04;5.97;;;4.17;;
7195;SDS011;3639;51.308;5.624;2022-10-22T01:03:32;6.97;;;4.50;;
7195;SDS011;3639;51.308;5.624;2022-10-22T01:05:58;9.30;;;4.83;;
7195;SDS011;3639;51.308;5.624;2022-10-22T01:08:29;8.03;;;4.13;;
7195;SDS011;3639;51.308;5.624;2022-10-22T01:16:45;7.73;;;4.20;;
7195;SDS011;3639;51.308;5.624;2022-10-22T01:19:31;6.17;;;4.00;;
7195;SDS011;3639;51.308;5.624;2022-10-22T01:25:04;8.53;;;4.20;;
7195;SDS011;3639;51.308;5.624;2022-10-22T01:28:00;4.17;;;3.70;;
7195;SDS011;3639;51.308;5.624;2022-10-22T01:30:35;7.20;;;4.17;;
7195;SDS011;3639;51.308;5.624;2022-10-22T01:33:03;6.93;;;5.10;;
7195;SDS011;3639;51.308;5.624;2022-10-22T01:35:36;4.80;;;3.97;;
7195;SDS011;3639;51.308;5.624;2022-10-22T01:38:08;4.93;;;4.00;;
7195;SDS011;3639;51.308;5.624;2022-10-22T01:40:37;9.90;;;5.10;;
7195;SDS011;3639;51.308;5.624;2022-10-22T01:43:04;7.53;;;4.17;;
7195;SDS011;3639;51.308;5.624;2022-10-22T01:45:33;8.23;;;5.03;;
7195;SDS011;3639;51.308;5.624;2022-10-22T01:59:05;9.47;;;4.93;;
7195;SDS011;3639;51.308;5.624;2022-10-22T02:02:09;7.30;;;4.63;;
7195;SDS011;3639;51.308;5.624;2022-10-22T02:07:16;10.70;;;4.90;;
7195;SDS011;3639;51.308;5.624;2022-10-22T02:09:45;8.33;;;4.47;;
7195;SDS011;3639;51.308;5.624;2022-10-22T02:12:12;6.43;;;4.73;;
7195;SDS011;3639;51.308;5.624;2022-10-22T02:14:40;6.80;;;4.30;;
7195;SDS011;3639;51.308;5.624;2022-10-22T02:17:09;9.20;;;5.07;;
7195;SDS011;3639;51.308;5.624;2022-10-22T02:19:45;9.80;;;5.13;;
7195;SDS011;3639;51.308;5.624;2022-10-22T02:22:24;7.17;;;4.27;;
7195;SDS011;3639;51.308;5.624;2022-10-22T02:24:51;6.77;;;4.47;;
7195;SDS011;3639;51.308;5.624;2022-10-22T02:30:04;5.97;;;4.00;;
7195;SDS011;3639;51.308;5.624;2022-10-22T02:32:31;6.40;;;3.80;;
7195;SDS011;3639;51.308;5.624;2022-10-22T02:35:03;8.50;;;4.27;;
7195;SDS011;3639;51.308;5.624;2022-10-22T02:37:31;8.33;;;4.83;;
7195;SDS011;3639;51.308;5.624;2022-10-22T02:39:57;11.40;;;4.70;;
7195;SDS011;3639;51.308;5.624;2022-10-22T02:42:24;9.70;;;4.77;;
7195;SDS011;3639;51.308;5.624;2022-10-22T02:44:51;6.50;;;4.23;;
7195;SDS011;3639;51.308;5.624;2022-10-22T02:47:17;7.60;;;4.40;;
7195;SDS011;3639;51.308;5.624;2022-10-22T02:49:42;6.23;;;3.67;;
7195;SDS011;3639;51.308;5.624;2022-10-22T02:52:08;10.77;;;4.57;;
7195;SDS011;3639;51.308;5.624;2022-10-22T02:54:33;8.63;;;4.47;;
7195;SDS011;3639;51.308;5.624;2022-10-22T02:56:59;6.17;;;3.90;;
7195;SDS011;3639;51.308;5.624;2022-10-22T02:59:25;6.53;;;3.87;;
7195;SDS011;3639;51.308;5.624;2022-10-22T03:01:50;7.27;;;4.30;;
7195;SDS011;3639;51.308;5.624;2022-10-22T03:04:16;8.80;;;4.20;;
7195;SDS011;3639;51.308;5.624;2022-10-22T03:06:41;12.57;;;4.30;;
7195;SDS011;3639;51.308;5.624;2022-10-22T03:09:08;12.27;;;3.90;;
7195;SDS011;3639;51.308;5.624;2022-10-22T03:11:34;11.20;;;4.57;;
7195;SDS011;3639;51.308;5.624;2022-10-22T03:14:00;7.37;;;3.63;;
7195;SDS011;3639;51.308;5.624;2022-10-22T03:16:26;10.20;;;4.63;;
7195;SDS011;3639;51.308;5.624;2022-10-22T03:18:51;7.80;;;4.00;;
7195;SDS011;3639;51.308;5.624;2022-10-22T03:24:03;10.53;;;4.23;;
7195;SDS011;3639;51.308;5.624;2022-10-22T03:26:34;10.03;;;4.57;;
7195;SDS011;3639;51.308;5.624;2022-10-22T03:29:00;5.40;;;3.50;;
7195;SDS011;3639;51.308;5.624;2022-10-22T03:31:26;5.97;;;3.50;;
7195;SDS011;3639;51.308;5.624;2022-10-22T03:33:52;3.80;;;3.37;;
7195;SDS011;3639;51.308;5.624;2022-10-22T03:36:17;7.43;;;4.30;;
7195;SDS011;3639;51.308;5.624;2022-10-22T03:38:43;5.30;;;3.80;;
7195;SDS011;3639;51.308;5.624;2022-10-22T03:41:09;10.97;;;4.60;;
7195;SDS011;3639;51.308;5.624;2022-10-22T03:43:35;11.97;;;4.50;;
7195;SDS011;3639;51.308;5.624;2022-10-22T03:46:02;7.33;;;4.07;;
7195;SDS011;3639;51.308;5.624;2022-10-22T03:48:28;5.83;;;4.10;;
7195;SDS011;3639;51.308;5.624;2022-10-22T03:50:54;12.27;;;3.93;;
7195;SDS011;3639;51.308;5.624;2022-10-22T03:53:19;9.40;;;3.80;;
7195;SDS011;3639;51.308;5.624;2022-10-22T03:55:45;9.67;;;4.43;;
7195;SDS011;3639;51.308;5.624;2022-10-22T03:58:11;7.20;;;4.70;;
7195;SDS011;3639;51.308;5.624;2022-10-22T04:00:36;7.93;;;4.20;;
7195;SDS011;3639;51.308;5.624;2022-10-22T04:03:02;15.43;;;4.33;;
7195;SDS011;3639;51.308;5.624;2022-10-22T04:05:28;9.03;;;3.83;;
7195;SDS011;3639;51.308;5.624;2022-10-22T04:07:53;8.93;;;4.20;;
7195;SDS011;3639;51.308;5.624;2022-10-22T04:10:19;4.47;;;3.67;;
7195;SDS011;3639;51.308;5.624;2022-10-22T04:12:48;11.87;;;4.07;;
7195;SDS011;3639;51.308;5.624;2022-10-22T04:15:14;8.83;;;4.00;;
7195;SDS011;3639;51.308;5.624;2022-10-22T04:17:39;8.27;;;3.57;;
7195;SDS011;3639;51.308;5.624;2022-10-22T04:20:05;8.43;;;3.87;;
7195;SDS011;3639;51.308;5.624;2022-10-22T04:22:32;8.70;;;4.40;;
7195;SDS011;3639;51.308;5.624;2022-10-22T04:24:59;8.83;;;5.00;;
7195;SDS011;3639;51.308;5.624;2022-10-22T04:27:24;12.80;;;5.03;;
7195;SDS011;3639;51.308;5.624;2022-10-22T04:29:53;5.30;;;3.57;;
7195;SDS011;3639;51.308;5.624;2022-10-22T04:32:18;13.20;;;4.20;;
7195;SDS011;3639;51.308;5.624;2022-10-22T04:34:44;5.17;;;3.63;;
7195;SDS011;3639;51.308;5.624;2022-10-22T04:37:09;5.67;;;3.43;;
7195;SDS011;3639;51.308;5.624;2022-10-22T04:39:35;8.20;;;4.00;;
7195;SDS011;3639;51.308;5.624;2022-10-22T04:42:00;10.57;;;3.77;;
7195;SDS011;3639;51.308;5.624;2022-10-22T04:44:26;8.83;;;4.57;;
7195;SDS011;3639;51.308;5.624;2022-10-22T04:46:52;4.40;;;3.20;;
7195;SDS011;3639;51.308;5.624;2022-10-22T04:49:18;5.77;;;3.87;;
7195;SDS011;3639;51.308;5.624;2022-10-22T04:51:44;6.07;;;4.00;;
7195;SDS011;3639;51.308;5.624;2022-10-22T04:54:09;8.13;;;5.13;;
7195;SDS011;3639;51.308;5.624;2022-10-22T04:56:35;10.47;;;4.20;;
7195;SDS011;3639;51.308;5.624;2022-10-22T04:59:04;8.37;;;4.23;;
7195;SDS011;3639;51.308;5.624;2022-10-22T05:01:35;4.77;;;3.80;;
7195;SDS011;3639;51.308;5.624;2022-10-22T05:04:02;8.00;;;3.70;;
7195;SDS011;3639;51.308;5.624;2022-10-22T05:06:29;6.07;;;3.57;;
7195;SDS011;3639;51.308;5.624;2022-10-22T05:08:57;6.20;;;3.63;;
7195;SDS011;3639;51.308;5.624;2022-10-22T05:11:29;14.53;;;3.97;;
7195;SDS011;3639;51.308;5.624;2022-10-22T05:13:57;7.33;;;3.43;;
7195;SDS011;3639;51.308;5.624;2022-10-22T05:16:24;8.97;;;4.00;;
7195;SDS011;3639;51.308;5.624;2022-10-22T05:18:51;5.70;;;4.10;;
7195;SDS011;3639;51.308;5.624;2022-10-22T05:21:18;9.43;;;3.80;;
7195;SDS011;3639;51.308;5.624;2022-10-22T05:23:45;9.03;;;3.30;;
7195;SDS011;3639;51.308;5.624;2022-10-22T05:26:13;7.30;;;4.33;;
7195;SDS011;3639;51.308;5.624;2022-10-22T05:28:41;8.53;;;4.30;;
7195;SDS011;3639;51.308;5.624;2022-10-22T05:31:07;13.13;;;3.97;;
7195;SDS011;3639;51.308;5.624;2022-10-22T05:33:35;7.50;;;4.07;;
7195;SDS011;3639;51.308;5.624;2022-10-22T05:36:02;7.93;;;4.43;;
7195;SDS011;3639;51.308;5.624;2022-10-22T05:38:30;8.83;;;3.33;;
7195;SDS011;3639;51.308;5.624;2022-10-22T05:41:00;8.40;;;3.30;;
7195;SDS011;3639;51.308;5.624;2022-10-22T05:43:28;6.30;;;3.57;;
7195;SDS011;3639;51.308;5.624;2022-10-22T05:45:54;9.30;;;3.83;;
7195;SDS011;3639;51.308;5.624;2022-10-22T05:48:20;12.20;;;3.73;;
7195;SDS011;3639;51.308;5.624;2022-10-22T05:50:46;9.90;;;3.77;;
7195;SDS011;3639;51.308;5.624;2022-10-22T05:53:14;5.77;;;3.17;;
7195;SDS011;3639;51.308;5.624;2022-10-22T05:55:41;5.50;;;3.47;;
7195;SDS011;3639;51.308;5.624;2022-10-22T05:58:08;9.53;;;3.83;;
7195;SDS011;3639;51.308;5.624;2022-10-22T06:00:34;6.00;;;3.70;;
7195;SDS011;3639;51.308;5.624;2022-10-22T06:03:00;10.03;;;3.67;;
7195;SDS011;3639;51.308;5.624;2022-10-22T06:05:26;10.53;;;3.57;;
7195;SDS011;3639;51.308;5.624;2022-10-22T06:07:51;7.20;;;3.40;;
7195;SDS011;3639;51.308;5.624;2022-10-22T06:10:18;7.87;;;3.03;;
7195;SDS011;3639;51.308;5.624;2022-10-22T06:12:45;10.03;;;3.30;;
7195;SDS011;3639;51.308;5.624;2022-10-22T06:15:12;8.67;;;3.13;;
7195;SDS011;3639;51.308;5.624;2022-10-22T06:17:40;4.60;;;3.23;;
7195;SDS011;3639;51.308;5.624;2022-10-22T06:20:06;11.77;;;3.63;;
7195;SDS011;3639;51.308;5.624;2022-10-22T06:22:32;6.97;;;2.80;;
7195;SDS011;3639;51.308;5.624;2022-10-22T06:24:58;8.57;;;2.80;;
7195;SDS011;3639;51.308;5.624;2022-10-22T06:27:23;12.37;;;3.60;;
7195;SDS011;3639;51.308;5.624;2022-10-22T06:29:49;6.97;;;3.20;;
7195;SDS011;3639;51.308;5.624;2022-10-22T06:32:14;6.60;;;2.67;;
7195;SDS011;3639;51.308;5.624;2022-10-22T06:34:40;5.27;;;2.80;;
7195;SDS011;3639;51.308;5.624;2022-10-22T06:37:06;3.87;;;2.93;;
7195;SDS011;3639;51.308;5.624;2022-10-22T06:39:32;10.90;;;3.23;;
7195;SDS011;3639;51.308;5.624;2022-10-22T06:41:58;5.57;;;2.90;;
7195;SDS011;3639;51.308;5.624;2022-10-22T06:44:23;5.47;;;3.90;;
7195;SDS011;3639;51.308;5.624;2022-10-22T06:46:49;7.90;;;2.67;;
7195;SDS011;3639;51.308;5.624;2022-10-22T06:49:16;9.73;;;3.03;;
7195;SDS011;3639;51.308;5.624;2022-10-22T06:51:44;8.33;;;3.17;;
7195;SDS011;3639;51.308;5.624;2022-10-22T06:54:10;3.70;;;2.80;;
7195;SDS011;3639;51.308;5.624;2022-10-22T06:56:36;5.23;;;2.77;;
7195;SDS011;3639;51.308;5.624;2022-10-22T06:59:01;9.30;;;3.47;;
7195;SDS011;3639;51.308;5.624;2022-10-22T07:01:30;6.43;;;2.97;;
7195;SDS011;3639;51.308;5.624;2022-10-22T07:03:57;8.57;;;2.60;;
7195;SDS011;3639;51.308;5.624;2022-10-22T07:06:24;8.70;;;3.10;;
7195;SDS011;3639;51.308;5.624;2022-10-22T07:08:52;4.37;;;2.63;;
7195;SDS011;3639;51.308;5.624;2022-10-22T07:11:19;6.20;;;2.60;;
7195;SDS011;3639;51.308;5.624;2022-10-22T07:13:50;8.00;;;3.40;;
7195;SDS011;3639;51.308;5.624;2022-10-22T07:16:18;5.47;;;2.90;;
7195;SDS011;3639;51.308;5.624;2022-10-22T07:18:44;9.23;;;3.20;;
7195;SDS011;3639;51.308;5.624;2022-10-22T07:21:11;4.20;;;2.80;;
7195;SDS011;3639;51.308;5.624;2022-10-22T07:23:38;6.53;;;2.87;;
7195;SDS011;3639;51.308;5.624;2022-10-22T07:26:04;4.60;;;2.50;;
7195;SDS011;3639;51.308;5.624;2022-10-22T07:28:31;5.50;;;3.50;;
7195;SDS011;3639;51.308;5.624;2022-10-22T07:30:57;5.00;;;2.47;;
7195;SDS011;3639;51.308;5.624;2022-10-22T07:33:24;9.20;;;2.10;;
7195;SDS011;3639;51.308;5.624;2022-10-22T07:35:55;4.07;;;2.33;;
7195;SDS011;3639;51.308;5.624;2022-10-22T07:38:25;6.80;;;2.60;;
7195;SDS011;3639;51.308;5.624;2022-10-22T07:40:51;6.50;;;2.20;;
7195;SDS011;3639;51.308;5.624;2022-10-22T07:43:17;8.47;;;1.83;;
7195;SDS011;3639;51.308;5.624;2022-10-22T07:45:43;8.37;;;4.20;;
7195;SDS011;3639;51.308;5.624;2022-10-22T07:48:09;8.00;;;4.30;;
7195;SDS011;3639;51.308;5.624;2022-10-22T07:50:34;3.97;;;2.53;;
7195;SDS011;3639;51.308;5.624;2022-10-22T07:53:00;6.17;;;2.00;;
7195;SDS011;3639;51.308;5.624;2022-10-22T07:55:25;4.73;;;2.13;;
7195;SDS011;3639;51.308;5.624;2022-10-22T07:57:51;3.63;;;1.90;;
7195;SDS011;3639;51.308;5.624;2022-10-22T08:00:17;4.47;;;1.67;;
7195;SDS011;3639;51.308;5.624;2022-10-22T08:02:43;6.73;;;1.70;;
7195;SDS011;3639;51.308;5.624;2022-10-22T08:05:09;4.70;;;1.90;;
7195;SDS011;3639;51.308;5.624;2022-10-22T08:07:34;4.03;;;2.10;;
7195;SDS011;3639;51.308;5.624;2022-10-22T08:10:00;5.87;;;1.87;;
7195;SDS011;3639;51.308;5.624;2022-10-22T08:12:26;2.30;;;1.70;;
7195;SDS011;3639;51.308;5.624;2022-10-22T08:14:51;3.93;;;2.10;;
7195;SDS011;3639;51.308;5.624;2022-10-22T08:17:17;5.03;;;1.70;;
7195;SDS011;3639;51.308;5.624;2022-10-22T08:19:42;4.90;;;1.67;;
7195;SDS011;3639;51.308;5.624;2022-10-22T08:22:08;3.77;;;1.90;;
7195;SDS011;3639;51.308;5.624;2022-10-22T08:24:34;5.57;;;1.60;;
7195;SDS011;3639;51.308;5.624;2022-10-22T08:26:59;6.97;;;1.77;;
7195;SDS011;3639;51.308;5.624;2022-10-22T08:29:25;4.97;;;1.70;;
7195;SDS011;3639;51.308;5.624;2022-10-22T08:31:51;10.07;;;2.17;;
7195;SDS011;3639;51.308;5.624;2022-10-22T08:34:18;3.33;;;1.80;;
7195;SDS011;3639;51.308;5.624;2022-10-22T08:36:43;2.13;;;1.40;;
7195;SDS011;3639;51.308;5.624;2022-10-22T08:39:09;4.60;;;1.57;;
7195;SDS011;3639;51.308;5.624;2022-10-22T08:41:37;7.23;;;1.73;;
7195;SDS011;3639;51.308;5.624;2022-10-22T08:49:41;4.27;;;2.00;;
7195;SDS011;3639;51.308;5.624;2022-10-22T08:52:14;8.23;;;2.13;;
7195;SDS011;3639;51.308;5.624;2022-10-22T08:54:56;6.60;;;1.50;;
7195;SDS011;3639;51.308;5.624;2022-10-22T09:02:51;5.07;;;1.80;;
7195;SDS011;3639;51.308;5.624;2022-10-22T09:08:18;4.10;;;1.40;;
7195;SDS011;3639;51.308;5.624;2022-10-22T09:10:52;3.03;;;1.57;;
7195;SDS011;3639;51.308;5.624;2022-10-22T09:13:27;3.47;;;1.60;;
7195;SDS011;3639;51.308;5.624;2022-10-22T09:15:54;4.63;;;1.70;;
7195;SDS011;3639;51.308;5.624;2022-10-22T09:18:29;3.07;;;1.40;;
7195;SDS011;3639;51.308;5.624;2022-10-22T09:24:10;5.63;;;2.43;;
7195;SDS011;3639;51.308;5.624;2022-10-22T09:26:42;4.33;;;2.57;;
7195;SDS011;3639;51.308;5.624;2022-10-22T09:29:12;2.10;;;1.40;;
7195;SDS011;3639;51.308;5.624;2022-10-22T09:31:43;1.60;;;1.37;;
7195;SDS011;3639;51.308;5.624;2022-10-22T09:34:08;2.00;;;1.20;;
7195;SDS011;3639;51.308;5.624;2022-10-22T09:36:37;2.57;;;1.30;;
7195;SDS011;3639;51.308;5.624;2022-10-22T09:39:03;2.20;;;1.30;;
7195;SDS011;3639;51.308;5.624;2022-10-22T09:41:28;3.33;;;1.30;;
7195;SDS011;3639;51.308;5.624;2022-10-22T09:43:54;2.60;;;1.20;;
7195;SDS011;3639;51.308;5.624;2022-10-22T09:46:23;5.40;;;1.60;;
7195;SDS011;3639;51.308;5.624;2022-10-22T09:49:02;7.37;;;2.83;;
7195;SDS011;3639;51.308;5.624;2022-10-22T09:51:39;2.77;;;1.50;;
7195;SDS011;3639;51.308;5.624;2022-10-22T09:59:41;1.47;;;1.20;;
7195;SDS011;3639;51.308;5.624;2022-10-22T10:02:16;6.03;;;1.60;;
7195;SDS011;3639;51.308;5.624;2022-10-22T10:04:46;3.80;;;1.60;;
7195;SDS011;3639;51.308;5.624;2022-10-22T10:07:22;2.20;;;1.40;;
7195;SDS011;3639;51.308;5.624;2022-10-22T10:09:50;4.43;;;1.50;;
7195;SDS011;3639;51.308;5.624;2022-10-22T10:17:43;4.23;;;1.30;;
7195;SDS011;3639;51.308;5.624;2022-10-22T10:23:24;4.67;;;2.10;;
7195;SDS011;3639;51.308;5.624;2022-10-22T10:26:06;4.80;;;1.40;;
7195;SDS011;3639;51.308;5.624;2022-10-22T10:31:33;3.73;;;1.47;;
7195;SDS011;3639;51.308;5.624;2022-10-22T10:37:00;3.30;;;1.50;;
7195;SDS011;3639;51.308;5.624;2022-10-22T10:39:59;6.40;;;1.37;;
7195;SDS011;3639;51.308;5.624;2022-10-22T10:42:53;4.47;;;1.57;;
7195;SDS011;3639;51.308;5.624;2022-10-22T10:48:22;4.17;;;1.63;;
7195;SDS011;3639;51.308;5.624;2022-10-22T10:50:54;6.07;;;2.00;;
7195;SDS011;3639;51.308;5.624;2022-10-22T10:53:46;3.57;;;1.53;;
7195;SDS011;3639;51.308;5.624;2022-10-22T10:56:44;3.13;;;1.33;;
7195;SDS011;3639;51.308;5.624;2022-10-22T11:07:41;3.90;;;1.57;;
7195;SDS011;3639;51.308;5.624;2022-10-22T11:10:26;5.33;;;1.30;;
7195;SDS011;3639;51.308;5.624;2022-10-22T11:13:56;3.07;;;1.90;;
7195;SDS011;3639;51.308;5.624;2022-10-22T11:16:02;6.00;;;1.83;;
7195;SDS011;3639;51.308;5.624;2022-10-22T11:18:42;3.67;;;1.67;;
7195;SDS011;3639;51.308;5.624;2022-10-22T11:21:28;4.10;;;1.30;;
7195;SDS011;3639;51.308;5.624;2022-10-22T11:29:23;3.27;;;1.50;;
7195;SDS011;3639;51.308;5.624;2022-10-22T11:31:52;7.97;;;1.40;;
7195;SDS011;3639;51.308;5.624;2022-10-22T11:34:21;3.07;;;1.50;;
7195;SDS011;3639;51.308;5.624;2022-10-22T11:36:52;2.57;;;1.20;;
7195;SDS011;3639;51.308;5.624;2022-10-22T11:39:28;4.60;;;1.47;;
7195;SDS011;3639;51.308;5.624;2022-10-22T11:41:58;3.50;;;1.33;;
7195;SDS011;3639;51.308;5.624;2022-10-22T11:44:27;1.97;;;1.20;;
7195;SDS011;3639;51.308;5.624;2022-10-22T11:47:02;5.03;;;1.67;;
7195;SDS011;3639;51.308;5.624;2022-10-22T11:49:43;4.40;;;1.60;;
7195;SDS011;3639;51.308;5.624;2022-10-22T11:54:55;5.27;;;1.67;;
7195;SDS011;3639;51.308;5.624;2022-10-22T11:57:26;5.27;;;1.50;;
7195;SDS011;3639;51.308;5.624;2022-10-22T11:59:57;4.10;;;1.30;;
7195;SDS011;3639;51.308;5.624;2022-10-22T12:04:54;4.47;;;1.80;;
7195;SDS011;3639;51.308;5.624;2022-10-22T12:08:05;5.23;;;1.63;;
7195;SDS011;3639;51.308;5.624;2022-10-22T12:10:15;2.87;;;1.40;;
7195;SDS011;3639;51.308;5.624;2022-10-22T12:12:44;2.67;;;1.30;;
7195;SDS011;3639;51.308;5.624;2022-10-22T12:15:27;3.90;;;1.60;;
7195;SDS011;3639;51.308;5.624;2022-10-22T12:17:59;4.10;;;1.17;;
7195;SDS011;3639;51.308;5.624;2022-10-22T12:20:27;3.00;;;2.00;;
7195;SDS011;3639;51.308;5.624;2022-10-22T12:22:54;4.73;;;1.50;;
7195;SDS011;3639;51.308;5.624;2022-10-22T12:25:23;5.00;;;1.77;;
7195;SDS011;3639;51.308;5.624;2022-10-22T12:27:51;2.30;;;1.47;;
7195;SDS011;3639;51.308;5.624;2022-10-22T12:32:49;2.90;;;1.33;;
7195;SDS011;3639;51.308;5.624;2022-10-22T12:35:19;4.37;;;1.43;;
7195;SDS011;3639;51.308;5.624;2022-10-22T12:40:44;4.57;;;1.30;;
7195;SDS011;3639;51.308;5.624;2022-10-22T12:43:11;2.87;;;1.33;;
7195;SDS011;3639;51.308;5.624;2022-10-22T12:45:39;4.20;;;1.30;;
7195;SDS011;3639;51.308;5.624;2022-10-22T12:48:11;2.80;;;1.20;;
7195;SDS011;3639;51.308;5.624;2022-10-22T12:50:46;4.37;;;1.53;;
7195;SDS011;3639;51.308;5.624;2022-10-22T12:53:22;4.47;;;1.20;;
7195;SDS011;3639;51.308;5.624;2022-10-22T12:55:54;5.90;;;1.80;;
7195;SDS011;3639;51.308;5.624;2022-10-22T12:58:26;2.80;;;1.30;;
7195;SDS011;3639;51.308;5.624;2022-10-22T13:01:03;4.30;;;1.10;;
7195;SDS011;3639;51.308;5.624;2022-10-22T13:03:31;5.40;;;1.43;;
7195;SDS011;3639;51.308;5.624;2022-10-22T13:06:11;3.37;;;1.13;;
7195;SDS011;3639;51.308;5.624;2022-10-22T13:08:42;5.20;;;1.40;;
7195;SDS011;3639;51.308;5.624;2022-10-22T13:11:33;2.70;;;1.43;;
7195;SDS011;3639;51.308;5.624;2022-10-22T13:14:18;3.27;;;1.30;;
7195;SDS011;3639;51.308;5.624;2022-10-22T13:19:43;6.73;;;1.40;;
7195;SDS011;3639;51.308;5.624;2022-10-22T13:22:32;5.20;;;2.23;;
7195;SDS011;3639;51.308;5.624;2022-10-22T13:30:49;3.17;;;1.30;;
7195;SDS011;3639;51.308;5.624;2022-10-22T13:33:24;2.40;;;1.50;;
7195;SDS011;3639;51.308;5.624;2022-10-22T13:36:01;2.37;;;1.20;;
7195;SDS011;3639;51.308;5.624;2022-10-22T13:38:28;5.87;;;1.33;;
7195;SDS011;3639;51.308;5.624;2022-10-22T13:40:54;2.67;;;1.13;;
7195;SDS011;3639;51.308;5.624;2022-10-22T13:43:20;4.17;;;1.67;;
7195;SDS011;3639;51.308;5.624;2022-10-22T13:45:47;4.10;;;1.50;;
7195;SDS011;3639;51.308;5.624;2022-10-22T13:48:16;2.93;;;1.10;;
7195;SDS011;3639;51.308;5.624;2022-10-22T13:50:45;5.57;;;1.33;;
7195;SDS011;3639;51.308;5.624;2022-10-22T13:53:14;2.97;;;1.17;;
7195;SDS011;3639;51.308;5.624;2022-10-22T13:55:43;2.83;;;1.10;;
7195;SDS011;3639;51.308;5.624;2022-10-22T13:58:10;2.47;;;1.40;;
7195;SDS011;3639;51.308;5.624;2022-10-22T14:00:38;5.33;;;1.40;;
7195;SDS011;3639;51.308;5.624;2022-10-22T14:03:07;3.20;;;1.27;;
7195;SDS011;3639;51.308;5.624;2022-10-22T14:05:35;4.30;;;1.37;;
7195;SDS011;3639;51.308;5.624;2022-10-22T14:08:01;4.70;;;1.53;;
7195;SDS011;3639;51.308;5.624;2022-10-22T14:10:27;1.43;;;0.90;;
7195;SDS011;3639;51.308;5.624;2022-10-22T14:12:53;2.17;;;1.03;;
7195;SDS011;3639;51.308;5.624;2022-10-22T14:15:22;4.47;;;1.10;;
7195;SDS011;3639;51.308;5.624;2022-10-22T14:17:53;2.93;;;1.23;;
7195;SDS011;3639;51.308;5.624;2022-10-22T14:20:21;3.50;;;1.40;;
7195;SDS011;3639;51.308;5.624;2022-10-22T14:22:50;3.17;;;1.40;;
7195;SDS011;3639;51.308;5.624;2022-10-22T14:25:18;3.20;;;1.60;;
7195;SDS011;3639;51.308;5.624;2022-10-22T14:27:45;2.93;;;1.13;;
7195;SDS011;3639;51.308;5.624;2022-10-22T14:30:15;3.10;;;1.27;;
7195;SDS011;3639;51.308;5.624;2022-10-22T14:32:50;2.30;;;1.20;;
7195;SDS011;3639;51.308;5.624;2022-10-22T14:35:17;2.10;;;1.30;;
7195;SDS011;3639;51.308;5.624;2022-10-22T14:37:45;2.00;;;1.23;;
7195;SDS011;3639;51.308;5.624;2022-10-22T14:40:12;4.03;;;1.30;;
7195;SDS011;3639;51.308;5.624;2022-10-22T14:42:41;4.00;;;1.50;;
7195;SDS011;3639;51.308;5.624;2022-10-22T14:45:21;5.63;;;2.00;;
7195;SDS011;3639;51.308;5.624;2022-10-22T14:47:48;2.63;;;1.70;;
7195;SDS011;3639;51.308;5.624;2022-10-22T14:50:15;2.20;;;1.53;;
7195;SDS011;3639;51.308;5.624;2022-10-22T14:52:41;2.93;;;1.20;;
7195;SDS011;3639;51.308;5.624;2022-10-22T14:55:08;2.57;;;1.40;;
7195;SDS011;3639;51.308;5.624;2022-10-22T14:57:35;3.13;;;1.50;;
7195;SDS011;3639;51.308;5.624;2022-10-22T15:00:03;4.23;;;1.20;;
7195;SDS011;3639;51.308;5.624;2022-10-22T15:02:30;3.73;;;1.10;;
7195;SDS011;3639;51.308;5.624;2022-10-22T15:04:56;4.20;;;1.60;;
7195;SDS011;3639;51.308;5.624;2022-10-22T15:07:21;1.37;;;1.20;;
7195;SDS011;3639;51.308;5.624;2022-10-22T15:09:48;4.47;;;1.20;;
7195;SDS011;3639;51.308;5.624;2022-10-22T15:12:15;2.40;;;1.23;;
7195;SDS011;3639;51.308;5.624;2022-10-22T15:14:40;2.33;;;1.10;;
7195;SDS011;3639;51.308;5.624;2022-10-22T15:17:06;2.90;;;1.13;;
7195;SDS011;3639;51.308;5.624;2022-10-22T15:19:32;4.00;;;1.10;;
7195;SDS011;3639;51.308;5.624;2022-10-22T15:21:57;2.90;;;1.40;;
7195;SDS011;3639;51.308;5.624;2022-10-22T15:24:23;3.50;;;1.40;;
7195;SDS011;3639;51.308;5.624;2022-10-22T15:26:49;4.23;;;1.30;;
7195;SDS011;3639;51.308;5.624;2022-10-22T15:29:17;2.43;;;1.47;;
7195;SDS011;3639;51.308;5.624;2022-10-22T15:31:48;2.63;;;1.50;;
7195;SDS011;3639;51.308;5.624;2022-10-22T15:34:37;3.87;;;1.40;;
7195;SDS011;3639;51.308;5.624;2022-10-22T15:37:04;3.43;;;1.30;;
7195;SDS011;3639;51.308;5.624;2022-10-22T15:39:31;4.97;;;2.23;;
7195;SDS011;3639;51.308;5.624;2022-10-22T15:41:57;3.27;;;1.60;;
7195;SDS011;3639;51.308;5.624;2022-10-22T15:44:25;3.17;;;1.87;;
7195;SDS011;3639;51.308;5.624;2022-10-22T15:46:53;2.83;;;1.30;;
7195;SDS011;3639;51.308;5.624;2022-10-22T15:49:19;2.47;;;1.20;;
7195;SDS011;3639;51.308;5.624;2022-10-22T15:51:46;3.63;;;2.40;;
7195;SDS011;3639;51.308;5.624;2022-10-22T15:54:12;3.07;;;1.43;;
7195;SDS011;3639;51.308;5.624;2022-10-22T15:56:40;2.80;;;1.63;;
7195;SDS011;3639;51.308;5.624;2022-10-22T15:59:06;1.20;;;1.10;;
7195;SDS011;3639;51.308;5.624;2022-10-22T16:01:32;3.73;;;1.20;;
7195;SDS011;3639;51.308;5.624;2022-10-22T16:03:58;3.40;;;1.40;;
7195;SDS011;3639;51.308;5.624;2022-10-22T16:06:30;2.83;;;1.87;;
7195;SDS011;3639;51.308;5.624;2022-10-22T16:08:59;2.70;;;1.30;;
7195;SDS011;3639;51.308;5.624;2022-10-22T16:11:27;3.63;;;1.73;;
7195;SDS011;3639;51.308;5.624;2022-10-22T16:13:53;1.87;;;1.23;;
7195;SDS011;3639;51.308;5.624;2022-10-22T16:16:21;3.67;;;1.47;;
7195;SDS011;3639;51.308;5.624;2022-10-22T16:18:49;3.60;;;1.30;;
7195;SDS011;3639;51.308;5.624;2022-10-22T16:21:15;2.23;;;1.20;;
7195;SDS011;3639;51.308;5.624;2022-10-22T16:23:41;2.77;;;1.50;;
7195;SDS011;3639;51.308;5.624;2022-10-22T16:26:07;1.83;;;1.50;;
7195;SDS011;3639;51.308;5.624;2022-10-22T16:28:33;3.13;;;1.67;;
7195;SDS011;3639;51.308;5.624;2022-10-22T16:31:02;2.93;;;1.50;;
7195;SDS011;3639;51.308;5.624;2022-10-22T16:33:29;3.07;;;1.30;;
7195;SDS011;3639;51.308;5.624;2022-10-22T16:35:56;3.73;;;1.47;;
7195;SDS011;3639;51.308;5.624;2022-10-22T16:38:21;2.83;;;1.40;;
7195;SDS011;3639;51.308;5.624;2022-10-22T16:40:47;2.33;;;1.30;;
7195;SDS011;3639;51.308;5.624;2022-10-22T16:43:14;2.40;;;1.37;;
7195;SDS011;3639;51.308;5.624;2022-10-22T16:45:45;1.80;;;1.40;;
7195;SDS011;3639;51.308;5.624;2022-10-22T16:48:13;3.60;;;1.53;;
7195;SDS011;3639;51.308;5.624;2022-10-22T16:50:38;4.33;;;1.50;;
7195;SDS011;3639;51.308;5.624;2022-10-22T16:53:04;2.67;;;1.10;;
7195;SDS011;3639;51.308;5.624;2022-10-22T16:55:31;1.60;;;1.10;;
7195;SDS011;3639;51.308;5.624;2022-10-22T16:58:00;5.10;;;1.73;;
7195;SDS011;3639;51.308;5.624;2022-10-22T17:00:26;2.47;;;1.43;;
7195;SDS011;3639;51.308;5.624;2022-10-22T17:02:52;2.27;;;1.20;;
7195;SDS011;3639;51.308;5.624;2022-10-22T17:05:18;5.03;;;1.50;;
7195;SDS011;3639;51.308;5.624;2022-10-22T17:07:44;5.73;;;1.40;;
7195;SDS011;3639;51.308;5.624;2022-10-22T17:10:10;6.60;;;1.70;;
7195;SDS011;3639;51.308;5.624;2022-10-22T17:12:35;2.73;;;1.67;;